Saint Clothilde Automated Reporting Station

CWIT · Quebec, Kanada

METAR-Geschichte CWIT · Saint Clothilde Automated Reporting Station

Unten siehst du die METARs der letzten paar Tage. Wähle ein Jahr, um ältere METARs ab dem Jahr 2007 zu durchsuchen.

17. April 2024

Uhrzeit Code Wetter Temp. Sichtweite Wolkendecke Wind METAR/SPECI
16:55
V
10 °C 10 mi - 330° 330° 5 kt METAR KFSO 172055Z AUTO 33005KT 10SM CLR 10/M01 A3014 RMK AO2 T00991008
16:35
V
10 °C 10 mi - 350° 350° 6 kt METAR KFSO 172035Z AUTO 35006KT 10SM CLR 10/M01 A3015 RMK AO2 T00981006
16:15
V
9 °C 10 mi - 330° 330° 6 kt METAR KFSO 172015Z AUTO 33006KT 10SM CLR 09/M01 A3015 RMK AO2 T00941009
15:55
V
9 °C 10 mi - 330° 330° 6 kt METAR KFSO 171955Z AUTO 33006KT 10SM CLR 09/M01 A3015 RMK AO2 T00911012
15:35
V
9 °C 10 mi - 310° 310° 6 kt METAR KFSO 171935Z AUTO 31006KT 10SM CLR 09/M02 A3016 RMK AO2 T00941016
15:15
V
9 °C 10 mi - 310° 310° 6 kt METAR KFSO 171915Z AUTO 31006KT 10SM CLR 09/M02 A3017 RMK AO2 T00911017
14:55
V
11 °C 10 mi - 320° 320° 6 kt METAR KFSO 171855Z AUTO 32006KT 10SM CLR 11/M02 A3018 RMK AO2 T01051016
14:35
V
10 °C 10 mi - 330° 330° 6 kt METAR KFSO 171835Z AUTO 33006KT 10SM CLR 10/M02 A3019 RMK AO2 T00951022
14:15
V
9 °C 10 mi - 360° 360° 7 kt METAR KFSO 171815Z AUTO 36007KT 330V030 10SM CLR 09/M02 A3020 RMK AO2 T00941020
13:55
V
10 °C 10 mi - 360° 360° 7 kt METAR KFSO 171755Z AUTO 36007KT 310V020 10SM CLR 10/M02 A3021 RMK AO2 T00971019 10097 20037
13:35
V
9 °C 10 mi - 320° 320° 6 kt METAR KFSO 171735Z AUTO 32006KT 10SM CLR 09/M02 A3022 RMK AO2 T00901025
13:15
V
8 °C 10 mi - 320° 320° 6 kt METAR KFSO 171715Z AUTO 32006KT 280V350 10SM CLR 08/M03 A3022 RMK AO2 T00841028
12:55
V
9 °C 10 mi - 310° 310° 7 kt METAR KFSO 171655Z AUTO 31007KT 10SM CLR 09/M03 A3023 RMK AO2 T00851028
12:35
V
8 °C 10 mi - 350° 350° 8 kt METAR KFSO 171635Z AUTO 35008KT 10SM CLR 08/M03 A3023 RMK AO2 T00821028
12:15
V
8 °C 10 mi - 310° 310° 7 kt METAR KFSO 171615Z AUTO 31007KT 250V350 10SM CLR 08/M03 A3024 RMK AO2 T00791028
11:55
V
7 °C 10 mi - 310° 310° 6 kt METAR KFSO 171555Z AUTO 31006KT 280V340 10SM CLR 07/M03 A3025 RMK AO2 T00731032
11:35
V
8 °C 10 mi - 360° 360° 6 kt METAR KFSO 171535Z AUTO 36006KT 320V020 10SM CLR 08/M03 A3025 RMK AO2 T00811030
11:15
V
8 °C 10 mi - 350° 350° 6 kt METAR KFSO 171515Z AUTO 35006KT 10SM CLR 08/M04 A3026 RMK AO2 T00761036
10:55
V
7 °C 10 mi - 360° 360° 5 kt METAR KFSO 171455Z AUTO 36005KT 10SM CLR 07/M04 A3027 RMK AO2 T00741038
10:35
V
7 °C 10 mi - 050° 050° 7 kt METAR KFSO 171435Z AUTO 05007KT 10SM CLR 07/M04 A3026 RMK AO2 T00721038
10:15
V
7 °C 10 mi - 360° 360° 9 kt METAR KFSO 171415Z AUTO 36009KT 10SM CLR 07/M04 A3027 RMK AO2 T00691037
09:55
V
7 °C 10 mi - 060° 060° 7 kt METAR KFSO 171355Z AUTO 06007KT 360V070 10SM CLR 07/M04 A3028 RMK AO2 T00661040
09:35
V
6 °C 10 mi - 080° 080° 7 kt METAR KFSO 171335Z AUTO 08007KT 10SM CLR 06/M04 A3028 RMK AO2 T00591039
09:15
V
5 °C 10 mi - 080° 080° 6 kt METAR KFSO 171315Z AUTO 08006KT 10SM CLR 05/M04 A3029 RMK AO2 T00521039
08:55
V
5 °C 10 mi - 050° 050° 5 kt METAR KFSO 171255Z AUTO 05005KT 10SM CLR 05/M04 A3029 RMK AO2 T00501039
08:35
V
4 °C 10 mi - 040° 040° 5 kt METAR KFSO 171235Z AUTO 04005KT 10SM CLR 04/M04 A3029 RMK AO2 T00411043
08:15
V
4 °C 10 mi - 060° 060° 6 kt METAR KFSO 171215Z AUTO 06006KT 10SM CLR 04/M04 A3029 RMK AO2 T00431042
07:55
V
4 °C 10 mi - 060° 060° 4 kt METAR KFSO 171155Z AUTO 06004KT 10SM CLR 04/M04 A3030 RMK AO2 T00351036 10035 21010
07:35
V
2 °C 10 mi - 360° 360° 0 kt METAR KFSO 171135Z AUTO 00000KT 10SM CLR 02/M03 A3030 RMK AO2 T00241027
07:15
V
1 °C 10 mi - 360° 360° 0 kt METAR KFSO 171115Z AUTO 00000KT 10SM CLR 01/M02 A3030 RMK AO2 T00121019
06:55
V
0 °C 10 mi - 360° 360° 0 kt METAR KFSO 171055Z AUTO 00000KT 10SM CLR 00/M02 A3030 RMK AO2 T00041018
06:35
V
0 °C 10 mi - 360° 360° 0 kt METAR KFSO 171035Z AUTO 00000KT 10SM CLR 00/M03 A3029 RMK AO2 T00001027
06:15
V
-1 °C 10 mi - 360° 360° 0 kt METAR KFSO 171015Z AUTO 00000KT 10SM CLR M01/M03 A3028 RMK AO2 T10081027
05:55
V
-1 °C 10 mi - 360° 360° 0 kt METAR KFSO 170955Z AUTO 00000KT 10SM CLR M01/M02 A3027 RMK AO2 T10101023
05:35
V
1 °C 10 mi - 360° 360° 0 kt METAR KFSO 170935Z AUTO 00000KT 10SM CLR 01/M04 A3027 RMK AO2 T00051038
05:15
V
1 °C 10 mi - 360° 360° 0 kt METAR KFSO 170915Z AUTO 00000KT 10SM CLR 01/M04 A3026 RMK AO2 T00091037
04:55
V
1 °C 10 mi - 040° 040° 3 kt METAR KFSO 170855Z AUTO 04003KT 10SM CLR 01/M03 A3026 RMK AO2 T00061035
04:35
V
0 °C 10 mi - 360° 360° 0 kt METAR KFSO 170835Z AUTO 00000KT 10SM CLR 00/M03 A3026 RMK AO2 T00031029
04:15
V
1 °C 10 mi - 360° 360° 0 kt METAR KFSO 170815Z AUTO 00000KT 10SM CLR 01/M03 A3026 RMK AO2 T00081030
03:55
V
1 °C 10 mi - 050° 050° 3 kt METAR KFSO 170755Z AUTO 05003KT 10SM CLR 01/M03 A3026 RMK AO2 T00081029
03:35
V
1 °C 10 mi - 050° 050° 3 kt METAR KFSO 170735Z AUTO 05003KT 10SM CLR 01/M03 A3026 RMK AO2 T00101029
03:15
V
0 °C 10 mi - 050° 050° 3 kt METAR KFSO 170715Z AUTO 05003KT 10SM CLR 00/M02 A3026 RMK AO2 T00001016
02:55
V
1 °C 10 mi - 360° 360° 0 kt METAR KFSO 170655Z AUTO 00000KT 10SM CLR 01/M03 A3026 RMK AO2 T00051026
02:35
V
1 °C 10 mi - 360° 360° 0 kt METAR KFSO 170635Z AUTO 00000KT 10SM CLR 01/M03 A3026 RMK AO2 T00071026
02:15
V
1 °C 10 mi - 030° 030° 3 kt METAR KFSO 170615Z AUTO 03003KT 10SM CLR 01/M02 A3025 RMK AO2 T00071023
01:55
V
1 °C 10 mi - 030° 030° 3 kt METAR KFSO 170555Z AUTO 03003KT 10SM CLR 01/M02 A3025 RMK AO2 T00131024 10075 20002
01:35
V
2 °C 10 mi - 010° 010° 4 kt METAR KFSO 170535Z AUTO 01004KT 10SM CLR 02/M03 A3026 RMK AO2 T00201026
01:15
V
2 °C 10 mi - 010° 010° 4 kt METAR KFSO 170515Z AUTO 01004KT 10SM CLR 02/M02 A3027 RMK AO2 T00181025
00:55
V
0 °C 10 mi - 010° 010° 4 kt METAR KFSO 170455Z AUTO 01004KT 10SM CLR 00/M01 A3026 RMK AO2 T00031012 401380002
00:35
V
1 °C 10 mi - 360° 360° 0 kt METAR KFSO 170435Z AUTO 00000KT 10SM CLR 01/M01 A3026 RMK AO2 T00071014
00:15
V
2 °C 10 mi - 360° 360° 0 kt METAR KFSO 170415Z AUTO 00000KT 10SM CLR 02/M01 A3026 RMK AO2 T00181010

16. April 2024

Uhrzeit Code Wetter Temp. Sichtweite Wolkendecke Wind METAR/SPECI
23:55
V
2 °C 10 mi - 360° 360° 0 kt METAR KFSO 170355Z AUTO 00000KT 10SM CLR 02/M02 A3026 RMK AO2 T00201019
23:35
V
3 °C 10 mi - 360° 360° 0 kt METAR KFSO 170335Z AUTO 00000KT 10SM CLR 03/M02 A3025 RMK AO2 T00271019
23:15
V
4 °C 10 mi - 360° 360° 0 kt METAR KFSO 170315Z AUTO 00000KT 10SM CLR 04/M03 A3024 RMK AO2 T00371026
22:55
V
4 °C 10 mi - 360° 360° 0 kt METAR KFSO 170255Z AUTO 00000KT 10SM CLR 04/M02 A3023 RMK AO2 T00401022
22:35
V
4 °C 10 mi - 360° 360° 0 kt METAR KFSO 170235Z AUTO 00000KT 10SM CLR 04/M02 A3023 RMK AO2 T00441024
22:15
V
5 °C 10 mi - 070° 070° 3 kt METAR KFSO 170215Z AUTO 07003KT 10SM CLR 05/M02 A3023 RMK AO2 T00461023
21:55
V
5 °C 10 mi - 070° 070° 4 kt METAR KFSO 170155Z AUTO 07004KT 10SM CLR 05/M02 A3023 RMK AO2 T00471020
21:35
V
5 °C 10 mi - 060° 060° 5 kt METAR KFSO 170135Z AUTO 06005KT 10SM CLR 05/M02 A3023 RMK AO2 T00531022
21:15
V
6 °C 10 mi - 050° 050° 6 kt METAR KFSO 170115Z AUTO 05006KT 10SM CLR 06/M02 A3023 RMK AO2 T00571023
20:55
V
6 °C 10 mi - 050° 050° 5 kt METAR KFSO 170055Z AUTO 05005KT 10SM SCT060 06/M02 A3023 RMK AO2 T00601017
20:35
V
7 °C 10 mi - 050° 050° 7 kt METAR KFSO 170035Z AUTO 05007KT 10SM SCT060 07/M01 A3022 RMK AO2 T00651011
20:15
V
7 °C 10 mi - 050° 050° 7 kt METAR KFSO 170015Z AUTO 05007KT 10SM SCT060 07/M01 A3021 RMK AO2 T00701014
19:55
V
8 °C 10 mi 6.000 ft 030° 030° 7 kt METAR KFSO 162355Z AUTO 03007KT 10SM OVC060 08/M01 A3021 RMK AO2 T00771012 10138 20077
19:35
V
8 °C 10 mi 6.000 ft 030° 030° 6 kt METAR KFSO 162335Z AUTO 03006KT 10SM OVC060 08/M01 A3021 RMK AO2 T00801010
19:15
V
9 °C 10 mi 6.000 ft 010° 010° 8 kt METAR KFSO 162315Z AUTO 01008KT 10SM BKN060 09/00 A3020 RMK AO2 T00851004
18:55
V
10 °C 10 mi 6.000 ft 010° 010° 10 kt METAR KFSO 162255Z AUTO 01010KT 10SM OVC060 10/M01 A3018 RMK AO2 T01001006
18:35
V
11 °C 10 mi 6.000 ft 340° 340° 7 kt METAR KFSO 162235Z AUTO 34007KT 10SM BKN060 11/M01 A3017 RMK AO2 T01091012
18:15
V
11 °C 10 mi - 330° 330° 6 kt METAR KFSO 162215Z AUTO 33006KT 300V010 10SM SCT060 11/M01 A3017 RMK AO2 T01131010
17:55
V
12 °C 10 mi - 350° 350° 6 kt METAR KFSO 162155Z AUTO 35006KT 300V020 10SM SCT065 12/M01 A3017 RMK AO2 T01221014
17:35
V
12 °C 10 mi - 330° 330° 7 - 17 kt METAR KFSO 162135Z AUTO 33007G17KT 290V020 10SM SCT070 12/M01 A3017 RMK AO2 T01221008
17:15
V
11 °C 10 mi - 320° 320° 7 - 17 kt METAR KFSO 162115Z AUTO 32007G17KT 280V010 10SM SCT080 11/00 A3017 RMK AO2 T01131003
16:55
V
13 °C 10 mi - 330° 330° 7 - 14 kt METAR KFSO 162055Z AUTO 33007G14KT 310V020 10SM SCT048 13/00 A3016 RMK AO2 T01250001
16:35
V
13 °C 10 mi - 330° 330° 11 - 15 kt METAR KFSO 162035Z AUTO 33011G15KT 300V360 10SM SCT046 13/00 A3015 RMK AO2 T01280004
16:15
V
13 °C 10 mi - 330° 330° 7 - 14 kt METAR KFSO 162015Z AUTO 33007G14KT 10SM CLR 13/01 A3015 RMK AO2 T01290008
15:55
V
13 °C 10 mi - 320° 320° 8 kt METAR KFSO 161955Z AUTO 32008KT 290V010 10SM SCT070 13/01 A3014 RMK AO2 T01320009
15:35
V
13 °C 10 mi - 320° 320° 8 kt METAR KFSO 161935Z AUTO 32008KT 240V340 10SM SCT070 13/00 A3014 RMK AO2 T01340003
15:15
V
13 °C 10 mi - 310° 310° 5 kt METAR KFSO 161915Z AUTO 31005KT 10SM CLR 13/00 A3014 RMK AO2 T01280003
14:55
V
13 °C 10 mi - 300° 300° 10 - 15 kt METAR KFSO 161855Z AUTO 30010G15KT 260V320 10SM CLR 13/00 A3015 RMK AO2 T01321001
14:35
V
13 °C 10 mi - 280° 280° 8 - 16 kt METAR KFSO 161835Z AUTO 28008G16KT 10SM SCT042 13/00 A3015 RMK AO2 T01340000
14:15
V
13 °C 10 mi - 330° 330° 5 kt METAR KFSO 161815Z AUTO 33005KT 10SM SCT040 SCT048 13/01 A3015 RMK AO2 T01280012
13:55
V
13 °C 10 mi - 280° 280° 9 - 14 kt METAR KFSO 161755Z AUTO 28009G14KT 10SM SCT040 SCT048 13/00 A3014 RMK AO2 T01280004 10128 20076
13:35
V
12 °C 10 mi - 290° 290° 9 - 15 kt METAR KFSO 161735Z AUTO 29009G15KT 260V350 10SM SCT040 12/01 A3014 RMK AO2 T01240009
13:15
V
12 °C 10 mi - 310° 310° 9 - 14 kt METAR KFSO 161715Z AUTO 31009G14KT 280V350 10SM SCT043 12/01 A3013 RMK AO2 T01170005
12:55
V
12 °C 10 mi - 330° 330° 5 - 16 kt METAR KFSO 161655Z AUTO 33005G16KT 10SM CLR 12/00 A3013 RMK AO2 T01190002
12:35
V
12 °C 10 mi - 320° 320° 10 - 16 kt METAR KFSO 161635Z AUTO 32010G16KT 280V360 10SM CLR 12/00 A3012 RMK AO2 T01200000
12:15
V
11 °C 10 mi - 330° 330° 9 - 17 kt METAR KFSO 161615Z AUTO 33009G17KT 10SM CLR 11/00 A3011 RMK AO2 T01141001
11:55
V
12 °C 10 mi - 330° 330° 7 kt METAR KFSO 161555Z AUTO 33007KT 260V360 10SM SCT038 12/00 A3011 RMK AO2 T01160003
11:35
V
11 °C 10 mi - 340° 340° 6 kt METAR KFSO 161535Z AUTO 34006KT 10SM SCT038 11/00 A3011 RMK AO2 T01130001
11:15
V
10 °C 10 mi - 300° 300° 5 kt METAR KFSO 161515Z AUTO 30005KT 10SM SCT034 10/01 A3011 RMK AO2 T01030005
10:55
V
11 °C 10 mi - 320° 320° 7 kt METAR KFSO 161455Z AUTO 32007KT 290V360 10SM SCT031 SCT037 11/01 A3012 RMK AO2 T01050010
10:35
V
9 °C 10 mi 3.200 ft 320° 320° 3 kt METAR KFSO 161435Z AUTO 32003KT 10SM BKN032 OVC039 09/01 A3012 RMK AO2 T00920011
10:15
V
9 °C 10 mi 3.200 ft 320° 320° 6 kt METAR KFSO 161415Z AUTO 32006KT 10SM OVC032 09/01 A3012 RMK AO2 T00900014
09:55
V
9 °C 10 mi 3.500 ft 300° 300° 4 kt METAR KFSO 161355Z AUTO 30004KT 10SM SCT030 BKN035 09/01 A3012 RMK AO2 T00870008
09:35
V
9 °C 10 mi - 340° 340° 6 kt METAR KFSO 161335Z AUTO 34006KT 10SM CLR 09/00 A3011 RMK AO2 T00870003
09:15
V
9 °C 10 mi - 350° 350° 4 kt METAR KFSO 161315Z AUTO 35004KT 10SM CLR 09/01 A3011 RMK AO2 T00870011
08:55
V
8 °C 10 mi - 340° 340° 3 kt METAR KFSO 161255Z AUTO 34003KT 10SM SCT020 SCT065 08/02 A3011 RMK AO2 T00790020
08:35
V
8 °C 10 mi - 330° 330° 4 kt METAR KFSO 161235Z AUTO 33004KT 10SM SCT065 08/02 A3011 RMK AO2 T00800022
08:15
V
8 °C 10 mi - 300° 300° 4 kt METAR KFSO 161215Z AUTO 30004KT 10SM CLR 08/02 A3010 RMK AO2 T00800021
07:55
V
8 °C 10 mi - 300° 300° 4 kt METAR KFSO 161155Z AUTO 30004KT 10SM CLR 08/02 A3010 RMK AO2 T00760024 10076 20032
07:35
V
7 °C 10 mi - 300° 300° 3 kt METAR KFSO 161135Z AUTO 30003KT 10SM SCT080 07/02 A3010 RMK AO2 T00680021
07:15
V
6 °C 10 mi 8.000 ft 280° 280° 3 kt METAR KFSO 161115Z AUTO 28003KT 10SM BKN080 06/03 A3008 RMK AO2 T00620026
06:55
V
5 °C 10 mi - 360° 360° 0 kt METAR KFSO 161055Z AUTO 00000KT 10SM CLR 05/04 A3008 RMK AO2 T00530036
06:35
V
5 °C 10 mi - 360° 360° 0 kt METAR KFSO 161035Z AUTO 00000KT 10SM CLR 05/04 A3007 RMK AO2 T00450040
06:15
V
4 °C 10 mi - 360° 360° 0 kt METAR KFSO 161015Z AUTO 00000KT 10SM CLR 04/03 A3006 RMK AO2 T00350030
05:55
V
4 °C 10 mi - 360° 360° 0 kt METAR KFSO 160955Z AUTO 00000KT 10SM CLR 04/03 A3005 RMK AO2 T00360030
05:35
V
4 °C 10 mi - 360° 360° 0 kt METAR KFSO 160935Z AUTO 00000KT 10SM CLR 04/04 A3004 RMK AO2 T00430038
05:15
V
5 °C 10 mi - 360° 360° 0 kt METAR KFSO 160915Z AUTO 00000KT 10SM CLR 05/04 A3003 RMK AO2 T00450040
04:55
V
5 °C 10 mi - 360° 360° 0 kt METAR KFSO 160855Z AUTO 00000KT 10SM CLR 05/05 A3003 RMK AO2 T00510046
04:35
V
5 °C 10 mi - 360° 360° 0 kt METAR KFSO 160835Z AUTO 00000KT 10SM SCT090 05/04 A3003 RMK AO2 T00500044
04:15
V
5 °C 10 mi 9.000 ft 360° 360° 0 kt METAR KFSO 160815Z AUTO 00000KT 10SM BKN090 05/04 A3002 RMK AO2 T00460040
03:55
V
4 °C 10 mi - 360° 360° 0 kt METAR KFSO 160755Z AUTO 00000KT 10SM SCT070 SCT090 04/03 A3001 RMK AO2 T00400034
03:35
V
4 °C 10 mi 7.500 ft 360° 360° 0 kt METAR KFSO 160735Z AUTO 00000KT 10SM BKN075 04/04 A3001 RMK AO2 T00440038
03:15
V
7 °C 10 mi 7.500 ft 360° 360° 0 kt METAR KFSO 160715Z AUTO 00000KT 10SM OVC075 07/04 A3000 RMK AO2 T00650040
02:55
V
6 °C 10 mi 7.500 ft 360° 360° 0 kt METAR KFSO 160655Z AUTO 00000KT 10SM BKN075 BKN085 06/04 A3000 RMK AO2 T00600037
02:35
V
6 °C 10 mi - 360° 360° 0 kt METAR KFSO 160635Z AUTO 00000KT 10SM SCT085 06/04 A2999 RMK AO2 T00570035
02:15
V
6 °C 10 mi - 360° 360° 0 kt METAR KFSO 160615Z AUTO 00000KT 10SM SCT085 06/03 A2999 RMK AO2 T00560028
01:55
V
6 °C 10 mi 8.500 ft 360° 360° 0 kt METAR KFSO 160555Z AUTO 00000KT 10SM SCT065 SCT075 BKN085 06/03 A2998 RMK AO2 T00590031 10117 20045
01:35
V
7 °C 10 mi 7.500 ft 360° 360° 0 kt METAR KFSO 160535Z AUTO 00000KT 10SM SCT065 BKN075 07/03 A2997 RMK AO2 T00690027
01:15
V
7 °C 10 mi - 360° 360° 0 kt METAR KFSO 160515Z AUTO 00000KT 10SM CLR 07/03 A2996 RMK AO2 T00680027
00:55
V
5 °C 10 mi - 180° 180° 3 kt METAR KFSO 160455Z AUTO 18003KT 10SM CLR 05/03 A2996 RMK AO2 T00530027 401480048
00:35
V
5 °C 10 mi - 360° 360° 0 kt METAR KFSO 160435Z AUTO 00000KT 10SM CLR 05/04 A2996 RMK AO2 T00540036
00:15
V
5 °C 10 mi - 360° 360° 0 kt METAR KFSO 160415Z AUTO 00000KT 10SM SCT100 05/03 A2995 RMK AO2 T00540027

15. April 2024

Uhrzeit Code Wetter Temp. Sichtweite Wolkendecke Wind METAR/SPECI
23:55
V
8 °C 10 mi - 360° 360° 0 kt METAR KFSO 160355Z AUTO 00000KT 10SM SCT100 08/03 A2994 RMK AO2 T00780025
23:35
V
8 °C 10 mi - 360° 360° 0 kt METAR KFSO 160335Z AUTO 00000KT 10SM CLR 08/02 A2994 RMK AO2 T00810023
23:15
V
8 °C 10 mi - 360° 360° 0 kt METAR KFSO 160315Z AUTO 00000KT 10SM CLR 08/03 A2994 RMK AO2 T00770025
22:55
V
9 °C 10 mi - 360° 360° 0 kt METAR KFSO 160255Z AUTO 00000KT 10SM CLR 09/03 A2994 RMK AO2 T00850025
22:35
V
9 °C 10 mi - 360° 360° 0 kt METAR KFSO 160235Z AUTO 00000KT 10SM CLR 09/03 A2994 RMK AO2 T00890025
22:15
V
9 °C 10 mi - 360° 360° 0 kt METAR KFSO 160215Z AUTO 00000KT 10SM SCT075 SCT100 09/03 A2994 RMK AO2 T00930026
21:55
V
10 °C 10 mi 10.000 ft 290° 290° 5 kt METAR KFSO 160155Z AUTO 29005KT 10SM SCT065 SCT075 OVC100 10/03 A2994 RMK AO2 T01020025
21:35
V
10 °C 10 mi 10.000 ft 360° 360° 0 kt METAR KFSO 160135Z AUTO 00000KT 10SM SCT070 OVC100 10/02 A2994 RMK AO2 T01010021
21:15
V
11 °C 10 mi 8.000 ft 360° 360° 0 kt METAR KFSO 160115Z AUTO 00000KT 10SM SCT070 BKN080 OVC100 11/02 A2994 RMK AO2 T01050018
20:55
V
11 °C 10 mi 7.000 ft 360° 360° 0 kt METAR KFSO 160055Z AUTO 00000KT 10SM BKN070 BKN100 11/02 A2993 RMK AO2 T01050020
20:35
V
11 °C 10 mi 7.500 ft 290° 290° 5 kt METAR KFSO 160035Z AUTO 29005KT 10SM OVC075 11/02 A2993 RMK AO2 T01100020
20:15
V
12 °C 10 mi 7.500 ft 360° 360° 0 kt METAR KFSO 160015Z AUTO 00000KT 10SM OVC075 12/01 A2991 RMK AO2 T01150010
19:55
V
12 °C 10 mi 7.500 ft 210° 210° 3 kt METAR KFSO 152355Z AUTO 21003KT 10SM OVC075 12/01 A2990 RMK AO2 T01160009 10148 20115
19:35
V
12 °C 10 mi 7.500 ft 200° 200° 3 kt METAR KFSO 152335Z AUTO 20003KT 10SM BKN075 12/01 A2989 RMK AO2 T01160006
19:15
V
12 °C 10 mi 8.500 ft 200° 200° 4 kt METAR KFSO 152315Z AUTO 20004KT 10SM BKN085 12/00 A2988 RMK AO2 T01210001
18:55
V
13 °C 10 mi 8.500 ft 190° 190° 3 kt METAR KFSO 152255Z AUTO 19003KT 10SM BKN085 13/00 A2988 RMK AO2 T01310001
18:35
V
13 °C 10 mi - 360° 360° 0 kt METAR KFSO 152235Z AUTO 00000KT 10SM SCT085 13/00 A2988 RMK AO2 T01250000
18:15
V
14 °C 10 mi - 220° 220° 5 kt METAR KFSO 152215Z AUTO 22005KT 10SM CLR 14/00 A2988 RMK AO2 T01371005
17:55
V
14 °C 10 mi - 230° 230° 4 kt METAR KFSO 152155Z AUTO 23004KT 10SM CLR 14/M01 A2987 RMK AO2 T01421010
17:35
V
14 °C 10 mi - 240° 240° 4 kt METAR KFSO 152135Z AUTO 24004KT 10SM CLR 14/00 A2987 RMK AO2 T01401005
17:15
V
14 °C 10 mi - 230° 230° 3 kt METAR KFSO 152115Z AUTO 23003KT 10SM SCT070 14/M01 A2987 RMK AO2 T01401006
16:55
V
13 °C 10 mi 7.000 ft 220° 220° 5 kt METAR KFSO 152055Z AUTO 22005KT 10SM SCT060 OVC070 13/00 A2987 RMK AO2 T01321003
16:35
V
14 °C 10 mi 7.000 ft 270° 270° 5 kt METAR KFSO 152035Z AUTO 27005KT 10SM BKN070 14/M01 A2986 RMK AO2 T01391009
16:15
V
15 °C 10 mi - 230° 230° 6 kt METAR KFSO 152015Z AUTO 23006KT 10SM SCT060 15/00 A2985 RMK AO2 T01451005
15:55
V
14 °C 10 mi 7.000 ft 260° 260° 4 kt METAR KFSO 151955Z AUTO 26004KT 10SM BKN070 14/00 A2985 RMK AO2 T01421004
15:35
V
14 °C 10 mi 7.000 ft 230° 230° 7 kt METAR KFSO 151935Z AUTO 23007KT 200V260 10SM SCT055 BKN070 14/00 A2984 RMK AO2 T01420004
15:15
V
13 °C 10 mi - 260° 260° 3 kt METAR KFSO 151915Z AUTO 26003KT 10SM SCT055 SCT070 13/01 A2984 RMK AO2 T01310013
14:55
V
13 °C 10 mi 7.000 ft 360° 360° 0 kt METAR KFSO 151855Z AUTO 00000KT 10SM OVC070 13/01 A2984 RMK AO2 T01300008
14:35
V
12 °C 10 mi 5.000 ft 310° 310° 4 kt METAR KFSO 151835Z AUTO 31004KT 10SM SCT043 BKN050 OVC070 12/01 A2984 RMK AO2 T01220012
14:15
V
12 °C 10 mi 6.000 ft 350° 350° 5 kt METAR KFSO 151815Z AUTO 35005KT 10SM SCT045 OVC060 12/02 A2984 RMK AO2 T01220018
13:55
V
12 °C 10 mi 5.000 ft 240° 240° 6 kt METAR KFSO 151755Z AUTO 24006KT 10SM SCT044 OVC050 12/02 A2984 RMK AO2 T01200023 10141 20072
13:35
V
13 °C 10 mi 5.000 ft 260° 260° 6 kt METAR KFSO 151735Z AUTO 26006KT 210V270 10SM SCT044 BKN050 OVC065 13/03 A2984 RMK AO2 T01320033
13:15
V
12 °C 10 mi 6.000 ft 310° 310° 3 kt METAR KFSO 151715Z AUTO 31003KT 10SM SCT027 SCT033 OVC060 12/03 A2983 RMK AO2 T01170032
12:55
M
12 °C 10 mi 2.700 ft 260° 260° 6 kt METAR KFSO 151655Z AUTO 26006KT 10SM BKN027 BKN033 BKN060 12/05 A2983 RMK AO2 T01240049
12:35
V
12 °C 10 mi 6.000 ft 240° 240° 5 kt METAR KFSO 151635Z AUTO 24005KT 10SM SCT022 SCT042 BKN060 12/05 A2983 RMK AO2 T01200054
12:15
M
10 °C 10 mi 2.500 ft 250° 250° 6 kt METAR KFSO 151615Z AUTO 25006KT 10SM SCT020 BKN025 BKN040 10/05 A2983 RMK AO2 T01030054
11:55
M
10 °C 10 mi 1.800 ft 260° 260° 5 kt METAR KFSO 151555Z AUTO 26005KT 10SM BKN018 OVC041 10/06 A2983 RMK AO2 T01020055
11:35
M
10 °C 10 mi 2.400 ft 310° 310° 4 kt METAR KFSO 151535Z AUTO 31004KT 10SM SCT017 BKN024 OVC080 10/06 A2983 RMK AO2 T00950057
11:15
M
9 °C 10 mi 2.300 ft 280° 280° 3 kt METAR KFSO 151515Z AUTO 28003KT 10SM SCT015 BKN023 OVC029 09/06 A2983 RMK AO2 T00920063
10:55
M
9 °C 10 mi 1.500 ft 280° 280° 4 kt METAR KFSO 151455Z AUTO 28004KT 10SM BKN015 BKN021 OVC029 09/07 A2983 RMK AO2 T00900066
10:35
M
8 °C 10 mi 2.100 ft 360° 360° 0 kt METAR KFSO 151435Z AUTO 00000KT 10SM SCT012 BKN021 OVC027 08/07 A2982 RMK AO2 T00830067
10:15
M
8 °C 10 mi 1.700 ft 360° 360° 0 kt METAR KFSO 151415Z AUTO 00000KT 10SM SCT010 BKN017 OVC023 08/07 A2982 RMK AO2 T00810070
09:55
M
8 °C 10 mi 1.500 ft 290° 290° 4 kt METAR KFSO 151355Z AUTO 29004KT 10SM SCT010 BKN015 OVC020 08/07 A2982 RMK AO2 T00810074
09:35
M
8 °C 10 mi 1.200 ft 300° 300° 3 kt METAR KFSO 151335Z AUTO 30003KT 10SM BKN012 BKN023 OVC043 08/07 A2981 RMK AO2 T00780072
09:15
V
8 °C 10 mi 3.900 ft 260° 260° 3 kt METAR KFSO 151315Z AUTO 26003KT 10SM SCT013 SCT023 OVC039 08/07 A2980 RMK AO2 T00770071
08:55
M
8 °C 10 mi 2.600 ft 360° 360° 0 kt METAR KFSO 151255Z AUTO 00000KT 10SM BKN026 OVC037 08/07 A2979 RMK AO2 T00750070
08:35
M
7 °C 10 mi 2.700 ft 360° 360° 0 kt METAR KFSO 151235Z AUTO 00000KT 10SM OVC027 07/07 A2979 RMK AO2 T00730067
08:15
M
7 °C 10 mi 2.500 ft 360° 360° 0 kt METAR KFSO 151215Z AUTO 00000KT 10SM SCT010 BKN025 OVC030 07/07 A2979 RMK AO2 T00720066
07:55
M
7 °C 10 mi 2.400 ft 360° 360° 0 kt METAR KFSO 151155Z AUTO 00000KT 10SM SCT008 SCT012 OVC024 07/07 A2979 RMK AO2 T00720066 10075 20070
07:35
M
7 °C 10 mi 2.200 ft 360° 360° 0 kt METAR KFSO 151135Z AUTO 00000KT 10SM SCT011 OVC022 07/07 A2978 RMK AO2 T00720066
07:15
M
7 °C 10 mi 1.600 ft 360° 360° 0 kt METAR KFSO 151115Z AUTO 00000KT 10SM SCT011 BKN016 OVC020 07/07 A2977 RMK AO2 T00720066
06:55
M
7 °C 5 mi 2.200 ft 360° 360° 0 kt METAR KFSO 151055Z AUTO 00000KT 5SM RA SCT012 OVC022 07/07 A2976 RMK AO2 T00720066
06:35
I
7 °C 3 mi 2.200 ft 360° 360° 0 kt METAR KFSO 151035Z AUTO 00000KT 3SM -RA SCT014 OVC022 07/07 A2975 RMK AO2 T00710065
06:15
M
7 °C 10 mi 2.200 ft 360° 360° 0 kt METAR KFSO 151015Z AUTO 00000KT 10SM SCT014 OVC022 07/07 A2974 RMK AO2 T00710065
05:55
M
7 °C 10 mi 2.000 ft 360° 360° 0 kt METAR KFSO 150955Z AUTO 00000KT 10SM OVC020 07/07 A2973 RMK AO2 T00720066
05:35
M
7 °C 10 mi 1.600 ft 360° 360° 0 kt METAR KFSO 150935Z AUTO 00000KT 10SM -RA SCT008 OVC016 07/07 A2972 RMK AO2 T00720066
05:15
M
7 °C 10 mi 1.800 ft 360° 360° 0 kt METAR KFSO 150915Z AUTO 00000KT 10SM -DZ SCT008 BKN018 OVC041 07/07 A2972 RMK AO2 T00730067
04:55
M
7 °C 7 mi 2.800 ft 360° 360° 0 kt METAR KFSO 150855Z AUTO 00000KT 7SM RA SCT010 BKN028 OVC041 07/07 A2971 RMK AO2 T00720066
04:35
M
7 °C 10 mi 1.000 ft 360° 360° 0 kt METAR KFSO 150835Z AUTO 00000KT 10SM -RA BKN010 BKN019 OVC041 07/07 A2971 RMK AO2 T00700065
04:15
M
7 °C 7 mi 1.000 ft 360° 360° 0 kt METAR KFSO 150815Z AUTO 00000KT 7SM -RA BKN010 OVC043 07/06 A2971 RMK AO2 T00700063
03:55
V
7 °C 10 mi 4.500 ft 360° 360° 0 kt METAR KFSO 150755Z AUTO 00000KT 10SM -RA OVC045 07/06 A2970 RMK AO2 T00700063
03:35
V
7 °C 10 mi 4.700 ft 360° 360° 0 kt METAR KFSO 150735Z AUTO 00000KT 10SM UP SCT010 SCT027 OVC047 07/07 A2969 RMK AO2 T00700065
03:15
V
7 °C 10 mi 4.700 ft 360° 360° 0 kt METAR KFSO 150715Z AUTO 00000KT 10SM SCT010 BKN047 OVC055 07/06 A2969 RMK AO2 T00700063
02:55
M
7 °C 10 mi 2.100 ft 360° 360° 0 kt METAR KFSO 150655Z AUTO 00000KT 10SM SCT010 BKN021 OVC055 07/07 A2969 RMK AO2 T00710065
02:35
M
7 °C 10 mi 2.900 ft 360° 360° 0 kt METAR KFSO 150635Z AUTO 00000KT 10SM -RA SCT010 BKN029 OVC044 07/07 A2969 RMK AO2 T00720066
02:15
V
7 °C 10 mi 4.400 ft 360° 360° 0 kt METAR KFSO 150615Z AUTO 00000KT 10SM SCT027 OVC044 07/07 A2970 RMK AO2 T00720066
01:55
V
7 °C 10 mi 4.600 ft 360° 360° 0 kt METAR KFSO 150555Z AUTO 00000KT 10SM SCT027 OVC046 07/07 A2970 RMK AO2 T00730067 10080 20073
Eine Änderung melden